sensor_id;sensor_type;location;lat;lon;timestamp;P1;durP1;ratioP1;P2;durP2;ratioP2
39018;SDS011;24786;51.984;5.872;2022-09-24T00:00:57;24.20;;;18.13;;
39018;SDS011;24786;51.984;5.872;2022-09-24T00:03:24;23.38;;;17.17;;
39018;SDS011;24786;51.984;5.872;2022-09-24T00:05:51;28.90;;;17.60;;
39018;SDS011;24786;51.984;5.872;2022-09-24T00:08:18;21.50;;;16.83;;
39018;SDS011;24786;51.984;5.872;2022-09-24T00:10:45;24.63;;;16.90;;
39018;SDS011;24786;51.984;5.872;2022-09-24T00:13:13;24.80;;;15.98;;
39018;SDS011;24786;51.984;5.872;2022-09-24T00:15:42;22.40;;;15.55;;
39018;SDS011;24786;51.984;5.872;2022-09-24T00:18:11;21.10;;;15.45;;
39018;SDS011;24786;51.984;5.872;2022-09-24T00:20:37;21.42;;;13.93;;
39018;SDS011;24786;51.984;5.872;2022-09-24T00:23:04;17.17;;;13.18;;
39018;SDS011;24786;51.984;5.872;2022-09-24T00:25:30;24.85;;;17.35;;
39018;SDS011;24786;51.984;5.872;2022-09-24T00:28:15;22.27;;;16.20;;
39018;SDS011;24786;51.984;5.872;2022-09-24T00:30:41;24.40;;;17.35;;
39018;SDS011;24786;51.984;5.872;2022-09-24T00:33:08;23.15;;;16.48;;
39018;SDS011;24786;51.984;5.872;2022-09-24T00:35:34;21.10;;;15.77;;
39018;SDS011;24786;51.984;5.872;2022-09-24T00:38:01;24.30;;;16.75;;
39018;SDS011;24786;51.984;5.872;2022-09-24T00:40:31;25.35;;;16.75;;
39018;SDS011;24786;51.984;5.872;2022-09-24T00:42:58;24.10;;;17.35;;
39018;SDS011;24786;51.984;5.872;2022-09-24T00:45:24;24.23;;;16.25;;
39018;SDS011;24786;51.984;5.872;2022-09-24T00:50:21;21.45;;;15.13;;
39018;SDS011;24786;51.984;5.872;2022-09-24T00:52:51;24.08;;;16.45;;
39018;SDS011;24786;51.984;5.872;2022-09-24T00:55:22;19.70;;;14.50;;
39018;SDS011;24786;51.984;5.872;2022-09-24T00:57:50;22.63;;;15.02;;
39018;SDS011;24786;51.984;5.872;2022-09-24T01:00:20;25.35;;;16.08;;
39018;SDS011;24786;51.984;5.872;2022-09-24T01:02:46;24.25;;;16.77;;
39018;SDS011;24786;51.984;5.872;2022-09-24T01:05:15;22.27;;;15.95;;
39018;SDS011;24786;51.984;5.872;2022-09-24T01:07:41;19.77;;;13.63;;
39018;SDS011;24786;51.984;5.872;2022-09-24T01:10:07;25.52;;;16.90;;
39018;SDS011;24786;51.984;5.872;2022-09-24T01:12:45;24.58;;;16.13;;
39018;SDS011;24786;51.984;5.872;2022-09-24T01:15:23;24.00;;;16.55;;
39018;SDS011;24786;51.984;5.872;2022-09-24T01:18:00;23.30;;;16.30;;
39018;SDS011;24786;51.984;5.872;2022-09-24T01:23:25;25.13;;;17.05;;
39018;SDS011;24786;51.984;5.872;2022-09-24T01:26:31;25.00;;;16.55;;
39018;SDS011;24786;51.984;5.872;2022-09-24T01:29:27;26.83;;;18.00;;
39018;SDS011;24786;51.984;5.872;2022-09-24T01:32:06;24.58;;;17.20;;
39018;SDS011;24786;51.984;5.872;2022-09-24T01:34:54;26.17;;;17.10;;
39018;SDS011;24786;51.984;5.872;2022-09-24T01:37:24;28.35;;;18.45;;
39018;SDS011;24786;51.984;5.872;2022-09-24T01:39:53;28.60;;;18.42;;
39018;SDS011;24786;51.984;5.872;2022-09-24T01:42:21;29.90;;;18.48;;
39018;SDS011;24786;51.984;5.872;2022-09-24T01:44:49;24.37;;;16.87;;
39018;SDS011;24786;51.984;5.872;2022-09-24T01:47:34;27.63;;;18.02;;
39018;SDS011;24786;51.984;5.872;2022-09-24T01:50:04;29.42;;;18.90;;
39018;SDS011;24786;51.984;5.872;2022-09-24T01:52:34;31.98;;;19.10;;
39018;SDS011;24786;51.984;5.872;2022-09-24T01:55:05;24.63;;;17.02;;
39018;SDS011;24786;51.984;5.872;2022-09-24T01:57:37;28.45;;;17.85;;
39018;SDS011;24786;51.984;5.872;2022-09-24T02:00:09;26.65;;;18.38;;
39018;SDS011;24786;51.984;5.872;2022-09-24T02:05:17;28.20;;;18.60;;
39018;SDS011;24786;51.984;5.872;2022-09-24T02:07:54;25.23;;;17.52;;
39018;SDS011;24786;51.984;5.872;2022-09-24T02:10:27;26.92;;;17.25;;
39018;SDS011;24786;51.984;5.872;2022-09-24T02:13:01;26.08;;;17.67;;
39018;SDS011;24786;51.984;5.872;2022-09-24T02:15:31;25.90;;;16.70;;
39018;SDS011;24786;51.984;5.872;2022-09-24T02:20:27;28.03;;;18.50;;
39018;SDS011;24786;51.984;5.872;2022-09-24T02:22:55;29.90;;;17.38;;
39018;SDS011;24786;51.984;5.872;2022-09-24T02:25:24;27.38;;;17.63;;
39018;SDS011;24786;51.984;5.872;2022-09-24T02:27:54;27.35;;;17.10;;
39018;SDS011;24786;51.984;5.872;2022-09-24T02:30:20;25.40;;;15.05;;
39018;SDS011;24786;51.984;5.872;2022-09-24T02:32:45;25.60;;;17.15;;
39018;SDS011;24786;51.984;5.872;2022-09-24T02:35:13;25.60;;;17.05;;
39018;SDS011;24786;51.984;5.872;2022-09-24T02:37:40;23.65;;;16.10;;
39018;SDS011;24786;51.984;5.872;2022-09-24T02:40:08;29.58;;;18.23;;
39018;SDS011;24786;51.984;5.872;2022-09-24T02:42:35;23.25;;;15.23;;
39018;SDS011;24786;51.984;5.872;2022-09-24T02:45:02;24.13;;;13.95;;
39018;SDS011;24786;51.984;5.872;2022-09-24T02:47:28;26.25;;;15.85;;
39018;SDS011;24786;51.984;5.872;2022-09-24T02:49:54;24.67;;;16.75;;
39018;SDS011;24786;51.984;5.872;2022-09-24T02:52:22;23.67;;;16.48;;
39018;SDS011;24786;51.984;5.872;2022-09-24T02:54:48;20.60;;;13.38;;
39018;SDS011;24786;51.984;5.872;2022-09-24T02:57:14;24.38;;;15.57;;
39018;SDS011;24786;51.984;5.872;2022-09-24T02:59:40;22.08;;;14.98;;
39018;SDS011;24786;51.984;5.872;2022-09-24T03:02:06;18.98;;;13.02;;
39018;SDS011;24786;51.984;5.872;2022-09-24T03:04:31;23.02;;;15.25;;
39018;SDS011;24786;51.984;5.872;2022-09-24T03:06:57;21.35;;;14.52;;
39018;SDS011;24786;51.984;5.872;2022-09-24T03:09:23;20.52;;;14.20;;
39018;SDS011;24786;51.984;5.872;2022-09-24T03:11:48;21.40;;;14.82;;
39018;SDS011;24786;51.984;5.872;2022-09-24T03:14:14;20.80;;;13.88;;
39018;SDS011;24786;51.984;5.872;2022-09-24T03:16:40;23.13;;;13.80;;
39018;SDS011;24786;51.984;5.872;2022-09-24T03:19:05;19.63;;;13.05;;
39018;SDS011;24786;51.984;5.872;2022-09-24T03:21:31;20.88;;;13.57;;
39018;SDS011;24786;51.984;5.872;2022-09-24T03:23:57;18.85;;;13.60;;
39018;SDS011;24786;51.984;5.872;2022-09-24T03:26:24;21.90;;;14.35;;
39018;SDS011;24786;51.984;5.872;2022-09-24T03:28:50;17.60;;;12.00;;
39018;SDS011;24786;51.984;5.872;2022-09-24T03:31:15;18.83;;;12.88;;
39018;SDS011;24786;51.984;5.872;2022-09-24T03:33:45;19.10;;;13.30;;
39018;SDS011;24786;51.984;5.872;2022-09-24T03:36:13;19.83;;;13.52;;
39018;SDS011;24786;51.984;5.872;2022-09-24T03:38:41;19.13;;;12.32;;
39018;SDS011;24786;51.984;5.872;2022-09-24T03:41:08;18.30;;;12.48;;
39018;SDS011;24786;51.984;5.872;2022-09-24T03:43:34;21.02;;;12.02;;
39018;SDS011;24786;51.984;5.872;2022-09-24T03:46:01;17.42;;;11.48;;
39018;SDS011;24786;51.984;5.872;2022-09-24T03:48:27;16.73;;;11.30;;
39018;SDS011;24786;51.984;5.872;2022-09-24T03:50:54;19.38;;;12.45;;
39018;SDS011;24786;51.984;5.872;2022-09-24T03:53:20;16.88;;;12.05;;
39018;SDS011;24786;51.984;5.872;2022-09-24T03:55:55;14.90;;;10.82;;
39018;SDS011;24786;51.984;5.872;2022-09-24T03:58:21;15.15;;;10.73;;
39018;SDS011;24786;51.984;5.872;2022-09-24T04:00:50;17.58;;;11.25;;
39018;SDS011;24786;51.984;5.872;2022-09-24T04:03:17;17.60;;;11.93;;
39018;SDS011;24786;51.984;5.872;2022-09-24T04:05:43;17.75;;;11.63;;
39018;SDS011;24786;51.984;5.872;2022-09-24T04:08:08;17.85;;;12.70;;
39018;SDS011;24786;51.984;5.872;2022-09-24T04:10:34;17.42;;;12.30;;
39018;SDS011;24786;51.984;5.872;2022-09-24T04:12:59;17.83;;;11.35;;
39018;SDS011;24786;51.984;5.872;2022-09-24T04:15:25;20.23;;;12.80;;
39018;SDS011;24786;51.984;5.872;2022-09-24T04:17:51;16.08;;;11.60;;
39018;SDS011;24786;51.984;5.872;2022-09-24T04:20:18;14.38;;;11.07;;
39018;SDS011;24786;51.984;5.872;2022-09-24T04:22:46;18.25;;;11.75;;
39018;SDS011;24786;51.984;5.872;2022-09-24T04:25:13;16.45;;;11.18;;
39018;SDS011;24786;51.984;5.872;2022-09-24T04:27:38;18.58;;;12.10;;
39018;SDS011;24786;51.984;5.872;2022-09-24T04:30:05;16.30;;;11.68;;
39018;SDS011;24786;51.984;5.872;2022-09-24T04:32:31;17.75;;;12.40;;
39018;SDS011;24786;51.984;5.872;2022-09-24T04:34:57;16.95;;;11.18;;
39018;SDS011;24786;51.984;5.872;2022-09-24T04:37:22;18.35;;;12.60;;
39018;SDS011;24786;51.984;5.872;2022-09-24T04:39:48;18.63;;;12.43;;
39018;SDS011;24786;51.984;5.872;2022-09-24T04:42:15;15.02;;;11.18;;
39018;SDS011;24786;51.984;5.872;2022-09-24T04:44:41;18.58;;;12.38;;
39018;SDS011;24786;51.984;5.872;2022-09-24T04:47:10;22.15;;;13.30;;
39018;SDS011;24786;51.984;5.872;2022-09-24T04:49:35;18.08;;;12.02;;
39018;SDS011;24786;51.984;5.872;2022-09-24T04:52:01;16.35;;;11.65;;
39018;SDS011;24786;51.984;5.872;2022-09-24T04:54:26;19.40;;;13.40;;
39018;SDS011;24786;51.984;5.872;2022-09-24T04:56:53;19.40;;;13.02;;
39018;SDS011;24786;51.984;5.872;2022-09-24T04:59:19;20.08;;;13.77;;
39018;SDS011;24786;51.984;5.872;2022-09-24T05:01:45;19.23;;;12.38;;
39018;SDS011;24786;51.984;5.872;2022-09-24T05:04:11;19.80;;;13.38;;
39018;SDS011;24786;51.984;5.872;2022-09-24T05:06:37;20.88;;;13.35;;
39018;SDS011;24786;51.984;5.872;2022-09-24T05:09:02;17.45;;;12.48;;
39018;SDS011;24786;51.984;5.872;2022-09-24T05:11:28;16.98;;;11.73;;
39018;SDS011;24786;51.984;5.872;2022-09-24T05:13:54;21.98;;;13.70;;
39018;SDS011;24786;51.984;5.872;2022-09-24T05:16:19;21.85;;;14.23;;
39018;SDS011;24786;51.984;5.872;2022-09-24T05:18:46;18.90;;;13.30;;
39018;SDS011;24786;51.984;5.872;2022-09-24T05:21:11;19.30;;;13.40;;
39018;SDS011;24786;51.984;5.872;2022-09-24T05:23:37;16.75;;;11.70;;
39018;SDS011;24786;51.984;5.872;2022-09-24T05:26:03;19.75;;;11.93;;
39018;SDS011;24786;51.984;5.872;2022-09-24T05:28:47;19.63;;;13.05;;
39018;SDS011;24786;51.984;5.872;2022-09-24T05:31:13;17.38;;;12.02;;
39018;SDS011;24786;51.984;5.872;2022-09-24T05:33:38;17.35;;;12.43;;
39018;SDS011;24786;51.984;5.872;2022-09-24T05:36:04;20.33;;;13.35;;
39018;SDS011;24786;51.984;5.872;2022-09-24T05:38:30;21.02;;;14.02;;
39018;SDS011;24786;51.984;5.872;2022-09-24T05:40:57;21.10;;;14.60;;
39018;SDS011;24786;51.984;5.872;2022-09-24T05:43:22;22.30;;;14.15;;
39018;SDS011;24786;51.984;5.872;2022-09-24T05:45:51;18.90;;;13.98;;
39018;SDS011;24786;51.984;5.872;2022-09-24T05:48:18;22.15;;;14.95;;
39018;SDS011;24786;51.984;5.872;2022-09-24T05:50:45;20.80;;;14.23;;
39018;SDS011;24786;51.984;5.872;2022-09-24T05:53:11;23.13;;;15.45;;
39018;SDS011;24786;51.984;5.872;2022-09-24T05:55:37;22.75;;;15.45;;
39018;SDS011;24786;51.984;5.872;2022-09-24T05:58:03;21.70;;;13.98;;
39018;SDS011;24786;51.984;5.872;2022-09-24T06:00:34;22.85;;;15.10;;
39018;SDS011;24786;51.984;5.872;2022-09-24T06:03:04;17.35;;;11.75;;
39018;SDS011;24786;51.984;5.872;2022-09-24T06:05:32;21.23;;;14.45;;
39018;SDS011;24786;51.984;5.872;2022-09-24T06:07:59;19.30;;;13.55;;
39018;SDS011;24786;51.984;5.872;2022-09-24T06:10:26;21.27;;;13.63;;
39018;SDS011;24786;51.984;5.872;2022-09-24T06:12:51;18.92;;;13.65;;
39018;SDS011;24786;51.984;5.872;2022-09-24T06:15:17;18.00;;;13.10;;
39018;SDS011;24786;51.984;5.872;2022-09-24T06:17:44;18.15;;;11.23;;
39018;SDS011;24786;51.984;5.872;2022-09-24T06:20:10;19.17;;;13.52;;
39018;SDS011;24786;51.984;5.872;2022-09-24T06:22:36;15.52;;;11.50;;
39018;SDS011;24786;51.984;5.872;2022-09-24T06:25:02;22.83;;;13.77;;
39018;SDS011;24786;51.984;5.872;2022-09-24T06:27:27;17.58;;;13.50;;
39018;SDS011;24786;51.984;5.872;2022-09-24T06:29:53;16.63;;;12.68;;
39018;SDS011;24786;51.984;5.872;2022-09-24T06:32:19;22.15;;;14.27;;
39018;SDS011;24786;51.984;5.872;2022-09-24T06:34:44;19.67;;;13.52;;
39018;SDS011;24786;51.984;5.872;2022-09-24T06:37:10;18.70;;;13.35;;
39018;SDS011;24786;51.984;5.872;2022-09-24T06:39:35;20.83;;;14.45;;
39018;SDS011;24786;51.984;5.872;2022-09-24T06:42:01;20.88;;;12.98;;
39018;SDS011;24786;51.984;5.872;2022-09-24T06:44:27;21.92;;;15.27;;
39018;SDS011;24786;51.984;5.872;2022-09-24T06:46:52;18.88;;;13.23;;
39018;SDS011;24786;51.984;5.872;2022-09-24T06:49:18;18.58;;;13.23;;
39018;SDS011;24786;51.984;5.872;2022-09-24T06:51:43;19.17;;;13.77;;
39018;SDS011;24786;51.984;5.872;2022-09-24T06:54:09;19.95;;;12.90;;
39018;SDS011;24786;51.984;5.872;2022-09-24T06:56:35;20.58;;;14.10;;
39018;SDS011;24786;51.984;5.872;2022-09-24T06:59:01;19.10;;;14.05;;
39018;SDS011;24786;51.984;5.872;2022-09-24T07:01:26;23.40;;;14.50;;
39018;SDS011;24786;51.984;5.872;2022-09-24T07:03:52;20.05;;;13.88;;
39018;SDS011;24786;51.984;5.872;2022-09-24T07:06:18;21.33;;;14.60;;
39018;SDS011;24786;51.984;5.872;2022-09-24T07:08:44;22.50;;;14.30;;
39018;SDS011;24786;51.984;5.872;2022-09-24T07:11:15;21.83;;;14.82;;
39018;SDS011;24786;51.984;5.872;2022-09-24T07:13:40;20.88;;;14.27;;
39018;SDS011;24786;51.984;5.872;2022-09-24T07:16:06;21.15;;;15.02;;
39018;SDS011;24786;51.984;5.872;2022-09-24T07:18:31;21.52;;;14.13;;
39018;SDS011;24786;51.984;5.872;2022-09-24T07:20:57;20.63;;;14.68;;
39018;SDS011;24786;51.984;5.872;2022-09-24T07:23:23;24.55;;;16.38;;
39018;SDS011;24786;51.984;5.872;2022-09-24T07:25:53;22.40;;;14.80;;
39018;SDS011;24786;51.984;5.872;2022-09-24T07:28:20;20.20;;;12.98;;
39018;SDS011;24786;51.984;5.872;2022-09-24T07:30:45;18.08;;;12.70;;
39018;SDS011;24786;51.984;5.872;2022-09-24T07:33:11;20.15;;;13.70;;
39018;SDS011;24786;51.984;5.872;2022-09-24T07:35:37;18.40;;;13.48;;
39018;SDS011;24786;51.984;5.872;2022-09-24T07:38:07;21.85;;;14.43;;
39018;SDS011;24786;51.984;5.872;2022-09-24T07:40:38;20.60;;;14.32;;
39018;SDS011;24786;51.984;5.872;2022-09-24T07:43:04;23.85;;;15.32;;
39018;SDS011;24786;51.984;5.872;2022-09-24T07:45:31;18.13;;;13.27;;
39018;SDS011;24786;51.984;5.872;2022-09-24T07:48:01;21.90;;;14.48;;
39018;SDS011;24786;51.984;5.872;2022-09-24T07:50:29;23.15;;;14.77;;
39018;SDS011;24786;51.984;5.872;2022-09-24T07:55:24;23.48;;;14.10;;
39018;SDS011;24786;51.984;5.872;2022-09-24T07:57:52;22.02;;;14.25;;
39018;SDS011;24786;51.984;5.872;2022-09-24T08:00:19;21.50;;;15.00;;
39018;SDS011;24786;51.984;5.872;2022-09-24T08:02:46;20.55;;;14.52;;
39018;SDS011;24786;51.984;5.872;2022-09-24T08:05:13;19.50;;;14.10;;
39018;SDS011;24786;51.984;5.872;2022-09-24T08:07:40;20.73;;;14.98;;
39018;SDS011;24786;51.984;5.872;2022-09-24T08:10:06;20.60;;;15.10;;
39018;SDS011;24786;51.984;5.872;2022-09-24T08:12:33;18.70;;;13.45;;
39018;SDS011;24786;51.984;5.872;2022-09-24T08:14:58;18.60;;;13.85;;
39018;SDS011;24786;51.984;5.872;2022-09-24T08:17:24;21.42;;;14.50;;
39018;SDS011;24786;51.984;5.872;2022-09-24T08:19:50;20.45;;;14.18;;
39018;SDS011;24786;51.984;5.872;2022-09-24T08:22:20;19.58;;;13.55;;
39018;SDS011;24786;51.984;5.872;2022-09-24T08:24:46;19.50;;;14.35;;
39018;SDS011;24786;51.984;5.872;2022-09-24T08:27:12;23.08;;;15.75;;
39018;SDS011;24786;51.984;5.872;2022-09-24T08:29:37;23.48;;;15.73;;
39018;SDS011;24786;51.984;5.872;2022-09-24T08:32:04;20.05;;;14.05;;
39018;SDS011;24786;51.984;5.872;2022-09-24T08:34:30;19.92;;;14.20;;
39018;SDS011;24786;51.984;5.872;2022-09-24T08:37:02;20.92;;;14.90;;
39018;SDS011;24786;51.984;5.872;2022-09-24T08:39:29;20.45;;;14.15;;
39018;SDS011;24786;51.984;5.872;2022-09-24T08:41:55;21.08;;;14.95;;
39018;SDS011;24786;51.984;5.872;2022-09-24T08:44:35;19.98;;;14.90;;
39018;SDS011;24786;51.984;5.872;2022-09-24T08:47:37;20.50;;;14.10;;
39018;SDS011;24786;51.984;5.872;2022-09-24T08:55:54;20.23;;;13.45;;
39018;SDS011;24786;51.984;5.872;2022-09-24T09:03:31;21.35;;;14.98;;
39018;SDS011;24786;51.984;5.872;2022-09-24T09:11:41;17.65;;;12.38;;
39018;SDS011;24786;51.984;5.872;2022-09-24T09:14:11;18.77;;;13.43;;
39018;SDS011;24786;51.984;5.872;2022-09-24T09:17:04;17.25;;;13.05;;
39018;SDS011;24786;51.984;5.872;2022-09-24T09:19:37;17.55;;;12.50;;
39018;SDS011;24786;51.984;5.872;2022-09-24T09:22:14;18.80;;;14.23;;
39018;SDS011;24786;51.984;5.872;2022-09-24T09:24:46;20.65;;;13.65;;
39018;SDS011;24786;51.984;5.872;2022-09-24T09:27:14;19.08;;;14.52;;
39018;SDS011;24786;51.984;5.872;2022-09-24T09:29:41;17.63;;;12.55;;
39018;SDS011;24786;51.984;5.872;2022-09-24T09:35:21;18.00;;;12.88;;
39018;SDS011;24786;51.984;5.872;2022-09-24T09:37:59;17.38;;;13.10;;
39018;SDS011;24786;51.984;5.872;2022-09-24T09:43:40;16.75;;;12.45;;
39018;SDS011;24786;51.984;5.872;2022-09-24T09:46:12;16.73;;;12.85;;
39018;SDS011;24786;51.984;5.872;2022-09-24T09:48:47;16.35;;;12.20;;
39018;SDS011;24786;51.984;5.872;2022-09-24T09:51:30;15.93;;;12.73;;
39018;SDS011;24786;51.984;5.872;2022-09-24T09:54:04;17.27;;;11.10;;
39018;SDS011;24786;51.984;5.872;2022-09-24T09:56:32;16.40;;;12.27;;
39018;SDS011;24786;51.984;5.872;2022-09-24T09:59:01;16.48;;;12.05;;
39018;SDS011;24786;51.984;5.872;2022-09-24T10:01:42;18.10;;;13.35;;
39018;SDS011;24786;51.984;5.872;2022-09-24T10:09:33;17.55;;;12.43;;
39018;SDS011;24786;51.984;5.872;2022-09-24T10:12:20;18.73;;;13.65;;
39018;SDS011;24786;51.984;5.872;2022-09-24T10:15:02;17.33;;;11.82;;
39018;SDS011;24786;51.984;5.872;2022-09-24T10:17:39;17.48;;;13.05;;
39018;SDS011;24786;51.984;5.872;2022-09-24T10:20:17;16.33;;;12.30;;
39018;SDS011;24786;51.984;5.872;2022-09-24T10:25:23;17.38;;;12.90;;
39018;SDS011;24786;51.984;5.872;2022-09-24T10:28:00;17.90;;;12.77;;
39018;SDS011;24786;51.984;5.872;2022-09-24T10:30:53;17.02;;;13.00;;
39018;SDS011;24786;51.984;5.872;2022-09-24T10:33:23;17.15;;;12.75;;
39018;SDS011;24786;51.984;5.872;2022-09-24T10:36:00;17.08;;;13.27;;
39018;SDS011;24786;51.984;5.872;2022-09-24T10:38:30;15.13;;;12.20;;
39018;SDS011;24786;51.984;5.872;2022-09-24T10:40:56;17.00;;;12.50;;
39018;SDS011;24786;51.984;5.872;2022-09-24T10:43:22;17.85;;;13.20;;
39018;SDS011;24786;51.984;5.872;2022-09-24T10:45:52;17.75;;;13.75;;
39018;SDS011;24786;51.984;5.872;2022-09-24T10:48:43;18.23;;;13.10;;
39018;SDS011;24786;51.984;5.872;2022-09-24T10:56:42;20.17;;;13.73;;
39018;SDS011;24786;51.984;5.872;2022-09-24T11:04:50;19.77;;;14.07;;
39018;SDS011;24786;51.984;5.872;2022-09-24T11:07:53;17.90;;;12.77;;
39018;SDS011;24786;51.984;5.872;2022-09-24T11:11:05;19.42;;;13.55;;
39018;SDS011;24786;51.984;5.872;2022-09-24T11:19:13;18.92;;;13.55;;
39018;SDS011;24786;51.984;5.872;2022-09-24T11:22:10;20.08;;;14.23;;
39018;SDS011;24786;51.984;5.872;2022-09-24T11:27:54;20.48;;;14.68;;
39018;SDS011;24786;51.984;5.872;2022-09-24T11:39:25;24.25;;;18.17;;
39018;SDS011;24786;51.984;5.872;2022-09-24T11:42:07;22.75;;;16.13;;
39018;SDS011;24786;51.984;5.872;2022-09-24T11:53:01;24.02;;;16.08;;
39018;SDS011;24786;51.984;5.872;2022-09-24T11:55:33;16.95;;;12.15;;
39018;SDS011;24786;51.984;5.872;2022-09-24T11:58:17;16.55;;;12.07;;
39018;SDS011;24786;51.984;5.872;2022-09-24T12:01:03;16.25;;;12.10;;
39018;SDS011;24786;51.984;5.872;2022-09-24T12:08:56;17.70;;;11.15;;
39018;SDS011;24786;51.984;5.872;2022-09-24T12:11:40;16.60;;;10.70;;
39018;SDS011;24786;51.984;5.872;2022-09-24T12:14:25;16.27;;;11.52;;
39018;SDS011;24786;51.984;5.872;2022-09-24T12:17:02;14.93;;;11.52;;
39018;SDS011;24786;51.984;5.872;2022-09-24T12:19:33;16.70;;;10.77;;
39018;SDS011;24786;51.984;5.872;2022-09-24T12:22:06;16.15;;;11.15;;
39018;SDS011;24786;51.984;5.872;2022-09-24T12:27:11;14.90;;;10.60;;
39018;SDS011;24786;51.984;5.872;2022-09-24T12:37:52;14.07;;;11.45;;
39018;SDS011;24786;51.984;5.872;2022-09-24T12:46:05;15.60;;;12.30;;
39018;SDS011;24786;51.984;5.872;2022-09-24T12:48:41;17.88;;;12.85;;
39018;SDS011;24786;51.984;5.872;2022-09-24T12:51:08;14.90;;;11.02;;
39018;SDS011;24786;51.984;5.872;2022-09-24T12:53:36;18.45;;;13.88;;
39018;SDS011;24786;51.984;5.872;2022-09-24T12:56:05;18.00;;;13.40;;
39018;SDS011;24786;51.984;5.872;2022-09-24T12:58:38;17.67;;;13.27;;
39018;SDS011;24786;51.984;5.872;2022-09-24T13:03:34;17.38;;;13.73;;
39018;SDS011;24786;51.984;5.872;2022-09-24T13:06:18;17.70;;;13.23;;
39018;SDS011;24786;51.984;5.872;2022-09-24T13:08:54;17.75;;;13.18;;
39018;SDS011;24786;51.984;5.872;2022-09-24T13:16:43;18.98;;;14.05;;
39018;SDS011;24786;51.984;5.872;2022-09-24T13:22:00;16.75;;;11.73;;
39018;SDS011;24786;51.984;5.872;2022-09-24T13:24:31;17.90;;;12.82;;
39018;SDS011;24786;51.984;5.872;2022-09-24T13:29:46;22.27;;;14.30;;
39018;SDS011;24786;51.984;5.872;2022-09-24T13:32:18;18.65;;;13.38;;
39018;SDS011;24786;51.984;5.872;2022-09-24T13:34:46;19.02;;;13.30;;
39018;SDS011;24786;51.984;5.872;2022-09-24T13:37:19;16.42;;;12.48;;
39018;SDS011;24786;51.984;5.872;2022-09-24T13:40:03;18.50;;;13.57;;
39018;SDS011;24786;51.984;5.872;2022-09-24T13:45:19;17.13;;;12.00;;
39018;SDS011;24786;51.984;5.872;2022-09-24T13:50:19;17.02;;;11.82;;
39018;SDS011;24786;51.984;5.872;2022-09-24T13:52:50;15.90;;;12.40;;
39018;SDS011;24786;51.984;5.872;2022-09-24T13:55:30;16.70;;;11.33;;
39018;SDS011;24786;51.984;5.872;2022-09-24T13:58:25;15.75;;;11.63;;
39018;SDS011;24786;51.984;5.872;2022-09-24T14:01:01;17.30;;;13.07;;
39018;SDS011;24786;51.984;5.872;2022-09-24T14:03:40;18.15;;;12.88;;
39018;SDS011;24786;51.984;5.872;2022-09-24T14:06:15;16.23;;;11.75;;
39018;SDS011;24786;51.984;5.872;2022-09-24T14:08:46;17.80;;;12.10;;
39018;SDS011;24786;51.984;5.872;2022-09-24T14:11:19;16.35;;;11.60;;
39018;SDS011;24786;51.984;5.872;2022-09-24T14:13:50;14.98;;;10.65;;
39018;SDS011;24786;51.984;5.872;2022-09-24T14:18:45;19.42;;;12.00;;
39018;SDS011;24786;51.984;5.872;2022-09-24T14:26:52;16.23;;;11.20;;
39018;SDS011;24786;51.984;5.872;2022-09-24T14:29:37;14.50;;;10.00;;
39018;SDS011;24786;51.984;5.872;2022-09-24T14:32:06;17.25;;;11.80;;
39018;SDS011;24786;51.984;5.872;2022-09-24T14:35:12;14.23;;;9.80;;
39018;SDS011;24786;51.984;5.872;2022-09-24T14:37:47;10.55;;;8.25;;
39018;SDS011;24786;51.984;5.872;2022-09-24T14:40:19;10.45;;;7.57;;
39018;SDS011;24786;51.984;5.872;2022-09-24T14:42:56;5.65;;;4.97;;
39018;SDS011;24786;51.984;5.872;2022-09-24T14:45:27;6.70;;;4.43;;
39018;SDS011;24786;51.984;5.872;2022-09-24T14:48:02;6.95;;;3.42;;
39018;SDS011;24786;51.984;5.872;2022-09-24T14:50:49;3.78;;;3.00;;
39018;SDS011;24786;51.984;5.872;2022-09-24T14:53:34;4.43;;;3.10;;
39018;SDS011;24786;51.984;5.872;2022-09-24T14:56:34;3.33;;;3.03;;
39018;SDS011;24786;51.984;5.872;2022-09-24T14:58:54;3.67;;;2.65;;
39018;SDS011;24786;51.984;5.872;2022-09-24T15:01:21;2.67;;;2.47;;
39018;SDS011;24786;51.984;5.872;2022-09-24T15:03:54;2.95;;;2.60;;
39018;SDS011;24786;51.984;5.872;2022-09-24T15:06:28;3.42;;;2.17;;
39018;SDS011;24786;51.984;5.872;2022-09-24T15:11:29;2.75;;;1.98;;
39018;SDS011;24786;51.984;5.872;2022-09-24T15:16:35;2.38;;;1.90;;
39018;SDS011;24786;51.984;5.872;2022-09-24T15:21:38;1.60;;;1.50;;
39018;SDS011;24786;51.984;5.872;2022-09-24T15:24:04;3.03;;;1.90;;
39018;SDS011;24786;51.984;5.872;2022-09-24T15:26:33;2.80;;;1.70;;
39018;SDS011;24786;51.984;5.872;2022-09-24T15:29:00;2.75;;;1.77;;
39018;SDS011;24786;51.984;5.872;2022-09-24T15:31:26;1.70;;;1.60;;
39018;SDS011;24786;51.984;5.872;2022-09-24T15:33:52;1.95;;;1.75;;
39018;SDS011;24786;51.984;5.872;2022-09-24T15:36:20;1.98;;;1.80;;
39018;SDS011;24786;51.984;5.872;2022-09-24T15:38:47;3.83;;;1.90;;
39018;SDS011;24786;51.984;5.872;2022-09-24T15:41:13;2.28;;;1.88;;
39018;SDS011;24786;51.984;5.872;2022-09-24T15:43:39;1.98;;;1.65;;
39018;SDS011;24786;51.984;5.872;2022-09-24T15:46:08;3.03;;;1.90;;
39018;SDS011;24786;51.984;5.872;2022-09-24T15:48:33;6.60;;;2.08;;
39018;SDS011;24786;51.984;5.872;2022-09-24T15:51:00;2.42;;;2.08;;
39018;SDS011;24786;51.984;5.872;2022-09-24T15:53:26;2.17;;;1.98;;
39018;SDS011;24786;51.984;5.872;2022-09-24T15:56:00;3.78;;;1.80;;
39018;SDS011;24786;51.984;5.872;2022-09-24T15:58:27;1.70;;;1.60;;
39018;SDS011;24786;51.984;5.872;2022-09-24T16:00:53;2.35;;;1.90;;
39018;SDS011;24786;51.984;5.872;2022-09-24T16:03:23;4.47;;;2.28;;
39018;SDS011;24786;51.984;5.872;2022-09-24T16:05:54;4.25;;;2.10;;
39018;SDS011;24786;51.984;5.872;2022-09-24T16:08:21;3.05;;;1.90;;
39018;SDS011;24786;51.984;5.872;2022-09-24T16:10:47;2.95;;;2.22;;
39018;SDS011;24786;51.984;5.872;2022-09-24T16:13:14;6.38;;;2.22;;
39018;SDS011;24786;51.984;5.872;2022-09-24T16:15:41;4.85;;;2.30;;
39018;SDS011;24786;51.984;5.872;2022-09-24T16:18:08;4.65;;;1.75;;
39018;SDS011;24786;51.984;5.872;2022-09-24T16:20:38;4.82;;;1.90;;
39018;SDS011;24786;51.984;5.872;2022-09-24T16:23:05;3.20;;;1.80;;
39018;SDS011;24786;51.984;5.872;2022-09-24T16:25:31;4.60;;;1.67;;
39018;SDS011;24786;51.984;5.872;2022-09-24T16:27:59;3.75;;;1.90;;
39018;SDS011;24786;51.984;5.872;2022-09-24T16:30:25;3.55;;;1.77;;
39018;SDS011;24786;51.984;5.872;2022-09-24T16:32:51;4.78;;;2.33;;
39018;SDS011;24786;51.984;5.872;2022-09-24T16:35:16;5.07;;;1.92;;
39018;SDS011;24786;51.984;5.872;2022-09-24T16:37:42;4.57;;;1.90;;
39018;SDS011;24786;51.984;5.872;2022-09-24T16:40:08;3.25;;;2.17;;
39018;SDS011;24786;51.984;5.872;2022-09-24T16:42:34;3.20;;;1.92;;
39018;SDS011;24786;51.984;5.872;2022-09-24T16:45:00;2.85;;;1.88;;
39018;SDS011;24786;51.984;5.872;2022-09-24T16:47:26;4.50;;;1.80;;
39018;SDS011;24786;51.984;5.872;2022-09-24T16:49:51;2.40;;;1.80;;
39018;SDS011;24786;51.984;5.872;2022-09-24T16:52:20;9.13;;;4.90;;
39018;SDS011;24786;51.984;5.872;2022-09-24T16:54:48;5.63;;;3.63;;
39018;SDS011;24786;51.984;5.872;2022-09-24T16:57:14;6.68;;;2.95;;
39018;SDS011;24786;51.984;5.872;2022-09-24T16:59:40;5.53;;;2.38;;